sensor_id;sensor_type;location;lat;lon;timestamp;P1;durP1;ratioP1;P2;durP2;ratioP2
18206;SDS011;9229;52.354;20.886;2022-08-06T00:04:11;10.18;;;8.68;;
18206;SDS011;9229;52.354;20.886;2022-08-06T00:09:13;12.05;;;9.57;;
18206;SDS011;9229;52.354;20.886;2022-08-06T00:14:17;11.43;;;10.05;;
18206;SDS011;9229;52.354;20.886;2022-08-06T00:19:21;16.92;;;12.38;;
18206;SDS011;9229;52.354;20.886;2022-08-06T00:24:24;17.42;;;11.80;;
18206;SDS011;9229;52.354;20.886;2022-08-06T00:29:27;20.23;;;11.40;;
18206;SDS011;9229;52.354;20.886;2022-08-06T00:34:31;14.75;;;10.95;;
18206;SDS011;9229;52.354;20.886;2022-08-06T00:39:35;19.33;;;11.93;;
18206;SDS011;9229;52.354;20.886;2022-08-06T00:44:38;14.32;;;11.15;;
18206;SDS011;9229;52.354;20.886;2022-08-06T00:49:42;13.45;;;11.23;;
18206;SDS011;9229;52.354;20.886;2022-08-06T00:54:45;14.32;;;11.73;;
18206;SDS011;9229;52.354;20.886;2022-08-06T00:59:48;12.38;;;11.07;;
18206;SDS011;9229;52.354;20.886;2022-08-06T01:04:52;13.38;;;11.43;;
18206;SDS011;9229;52.354;20.886;2022-08-06T01:09:55;14.93;;;11.38;;
18206;SDS011;9229;52.354;20.886;2022-08-06T01:14:58;16.88;;;10.75;;
18206;SDS011;9229;52.354;20.886;2022-08-06T01:20:08;22.10;;;12.27;;
18206;SDS011;9229;52.354;20.886;2022-08-06T01:25:24;13.70;;;11.38;;
18206;SDS011;9229;52.354;20.886;2022-08-06T01:30:40;17.50;;;12.75;;
18206;SDS011;9229;52.354;20.886;2022-08-06T01:35:49;18.08;;;12.00;;
18206;SDS011;9229;52.354;20.886;2022-08-06T01:40:57;15.30;;;11.75;;
18206;SDS011;9229;52.354;20.886;2022-08-06T01:46:04;15.88;;;12.55;;
18206;SDS011;9229;52.354;20.886;2022-08-06T01:51:08;15.68;;;12.98;;
18206;SDS011;9229;52.354;20.886;2022-08-06T01:56:11;17.02;;;13.18;;
18206;SDS011;9229;52.354;20.886;2022-08-06T02:01:16;15.25;;;13.25;;
18206;SDS011;9229;52.354;20.886;2022-08-06T02:06:22;16.10;;;12.95;;
18206;SDS011;9229;52.354;20.886;2022-08-06T02:11:28;18.08;;;13.35;;
18206;SDS011;9229;52.354;20.886;2022-08-06T02:16:37;19.27;;;13.02;;
18206;SDS011;9229;52.354;20.886;2022-08-06T02:21:43;16.25;;;12.82;;
18206;SDS011;9229;52.354;20.886;2022-08-06T02:26:48;17.70;;;13.48;;
18206;SDS011;9229;52.354;20.886;2022-08-06T02:31:53;18.10;;;13.85;;
18206;SDS011;9229;52.354;20.886;2022-08-06T02:36:57;18.70;;;14.20;;
18206;SDS011;9229;52.354;20.886;2022-08-06T02:42:06;20.10;;;15.98;;
18206;SDS011;9229;52.354;20.886;2022-08-06T02:47:17;23.75;;;16.90;;
18206;SDS011;9229;52.354;20.886;2022-08-06T02:52:25;20.88;;;16.13;;
18206;SDS011;9229;52.354;20.886;2022-08-06T02:57:33;17.70;;;14.85;;
18206;SDS011;9229;52.354;20.886;2022-08-06T03:02:41;15.70;;;14.02;;
18206;SDS011;9229;52.354;20.886;2022-08-06T03:07:48;20.27;;;15.02;;
18206;SDS011;9229;52.354;20.886;2022-08-06T03:12:52;22.85;;;14.52;;
18206;SDS011;9229;52.354;20.886;2022-08-06T03:17:59;19.88;;;14.13;;
18206;SDS011;9229;52.354;20.886;2022-08-06T03:23:06;18.67;;;14.90;;
18206;SDS011;9229;52.354;20.886;2022-08-06T03:28:10;17.85;;;14.90;;
18206;SDS011;9229;52.354;20.886;2022-08-06T03:33:15;19.45;;;15.10;;
18206;SDS011;9229;52.354;20.886;2022-08-06T03:38:20;18.00;;;14.20;;
18206;SDS011;9229;52.354;20.886;2022-08-06T03:43:24;18.60;;;15.95;;
18206;SDS011;9229;52.354;20.886;2022-08-06T03:48:33;19.02;;;15.38;;
18206;SDS011;9229;52.354;20.886;2022-08-06T03:53:40;22.35;;;15.65;;
18206;SDS011;9229;52.354;20.886;2022-08-06T03:58:44;20.95;;;14.73;;
18206;SDS011;9229;52.354;20.886;2022-08-06T04:03:50;16.92;;;14.27;;
18206;SDS011;9229;52.354;20.886;2022-08-06T04:08:54;19.15;;;14.50;;
18206;SDS011;9229;52.354;20.886;2022-08-06T04:13:58;17.00;;;13.65;;
18206;SDS011;9229;52.354;20.886;2022-08-06T04:19:04;15.73;;;12.82;;
18206;SDS011;9229;52.354;20.886;2022-08-06T04:24:09;20.02;;;13.10;;
18206;SDS011;9229;52.354;20.886;2022-08-06T04:29:12;20.70;;;12.77;;
18206;SDS011;9229;52.354;20.886;2022-08-06T04:34:22;18.42;;;12.32;;
18206;SDS011;9229;52.354;20.886;2022-08-06T04:39:27;18.77;;;12.02;;
18206;SDS011;9229;52.354;20.886;2022-08-06T04:44:32;13.77;;;11.93;;
18206;SDS011;9229;52.354;20.886;2022-08-06T04:49:37;12.43;;;11.23;;
18206;SDS011;9229;52.354;20.886;2022-08-06T04:54:40;11.65;;;10.52;;
18206;SDS011;9229;52.354;20.886;2022-08-06T04:59:43;12.55;;;10.15;;
18206;SDS011;9229;52.354;20.886;2022-08-06T05:04:47;11.45;;;9.82;;
18206;SDS011;9229;52.354;20.886;2022-08-06T05:09:56;10.00;;;8.85;;
18206;SDS011;9229;52.354;20.886;2022-08-06T05:15:02;11.55;;;8.82;;
18206;SDS011;9229;52.354;20.886;2022-08-06T05:20:11;9.63;;;8.60;;
18206;SDS011;9229;52.354;20.886;2022-08-06T05:25:17;8.45;;;7.72;;
18206;SDS011;9229;52.354;20.886;2022-08-06T05:30:20;9.02;;;8.13;;
18206;SDS011;9229;52.354;20.886;2022-08-06T05:35:25;18.73;;;8.98;;
18206;SDS011;9229;52.354;20.886;2022-08-06T05:40:28;8.55;;;7.72;;
18206;SDS011;9229;52.354;20.886;2022-08-06T05:45:34;12.55;;;7.72;;
18206;SDS011;9229;52.354;20.886;2022-08-06T05:50:42;8.45;;;7.57;;
18206;SDS011;9229;52.354;20.886;2022-08-06T05:55:51;9.85;;;8.85;;
18206;SDS011;9229;52.354;20.886;2022-08-06T06:00:57;10.32;;;8.95;;
18206;SDS011;9229;52.354;20.886;2022-08-06T06:06:04;9.18;;;8.38;;
18206;SDS011;9229;52.354;20.886;2022-08-06T06:11:08;9.45;;;8.55;;
18206;SDS011;9229;52.354;20.886;2022-08-06T06:16:13;10.57;;;8.95;;
18206;SDS011;9229;52.354;20.886;2022-08-06T06:21:30;10.43;;;9.38;;
18206;SDS011;9229;52.354;20.886;2022-08-06T06:26:39;10.27;;;9.10;;
18206;SDS011;9229;52.354;20.886;2022-08-06T06:31:49;11.68;;;9.40;;
18206;SDS011;9229;52.354;20.886;2022-08-06T06:37:03;10.90;;;9.73;;
18206;SDS011;9229;52.354;20.886;2022-08-06T06:42:13;11.43;;;9.88;;
18206;SDS011;9229;52.354;20.886;2022-08-06T06:47:21;9.07;;;8.27;;
18206;SDS011;9229;52.354;20.886;2022-08-06T06:52:33;9.23;;;8.00;;
18206;SDS011;9229;52.354;20.886;2022-08-06T06:57:41;8.73;;;7.05;;
18206;SDS011;9229;52.354;20.886;2022-08-06T07:02:47;7.15;;;6.45;;
18206;SDS011;9229;52.354;20.886;2022-08-06T07:07:53;6.88;;;5.63;;
18206;SDS011;9229;52.354;20.886;2022-08-06T07:12:57;5.45;;;4.95;;
18206;SDS011;9229;52.354;20.886;2022-08-06T07:18:01;6.00;;;5.50;;
18206;SDS011;9229;52.354;20.886;2022-08-06T07:23:09;6.20;;;5.70;;
18206;SDS011;9229;52.354;20.886;2022-08-06T07:28:13;5.80;;;5.35;;
18206;SDS011;9229;52.354;20.886;2022-08-06T07:33:17;7.38;;;5.40;;
18206;SDS011;9229;52.354;20.886;2022-08-06T07:38:22;5.38;;;4.85;;
18206;SDS011;9229;52.354;20.886;2022-08-06T07:43:29;5.82;;;4.80;;
18206;SDS011;9229;52.354;20.886;2022-08-06T07:48:35;6.15;;;4.03;;
18206;SDS011;9229;52.354;20.886;2022-08-06T07:53:42;5.75;;;4.57;;
18206;SDS011;9229;52.354;20.886;2022-08-06T07:58:47;4.97;;;4.40;;
18206;SDS011;9229;52.354;20.886;2022-08-06T08:03:51;3.75;;;3.45;;
18206;SDS011;9229;52.354;20.886;2022-08-06T08:09:12;3.22;;;3.03;;
18206;SDS011;9229;52.354;20.886;2022-08-06T08:14:18;4.47;;;2.78;;
18206;SDS011;9229;52.354;20.886;2022-08-06T08:19:23;3.15;;;2.95;;
18206;SDS011;9229;52.354;20.886;2022-08-06T08:24:33;2.70;;;2.60;;
18206;SDS011;9229;52.354;20.886;2022-08-06T08:29:37;3.25;;;3.05;;
18206;SDS011;9229;52.354;20.886;2022-08-06T08:34:41;3.60;;;2.90;;
18206;SDS011;9229;52.354;20.886;2022-08-06T08:39:45;3.10;;;2.90;;
18206;SDS011;9229;52.354;20.886;2022-08-06T08:44:48;3.35;;;3.00;;
18206;SDS011;9229;52.354;20.886;2022-08-06T08:49:54;3.10;;;2.90;;
18206;SDS011;9229;52.354;20.886;2022-08-06T08:55:03;3.60;;;3.40;;
18206;SDS011;9229;52.354;20.886;2022-08-06T09:00:11;3.70;;;3.35;;
18206;SDS011;9229;52.354;20.886;2022-08-06T09:05:15;3.80;;;3.50;;
18206;SDS011;9229;52.354;20.886;2022-08-06T09:10:20;8.07;;;2.95;;
18206;SDS011;9229;52.354;20.886;2022-08-06T09:15:25;3.72;;;3.33;;
18206;SDS011;9229;52.354;20.886;2022-08-06T09:20:28;3.47;;;3.17;;
18206;SDS011;9229;52.354;20.886;2022-08-06T09:25:36;6.07;;;3.58;;
18206;SDS011;9229;52.354;20.886;2022-08-06T09:30:42;4.05;;;3.65;;
18206;SDS011;9229;52.354;20.886;2022-08-06T09:36:00;4.05;;;3.75;;
18206;SDS011;9229;52.354;20.886;2022-08-06T09:41:07;3.67;;;3.47;;
18206;SDS011;9229;52.354;20.886;2022-08-06T09:46:11;3.78;;;3.50;;
18206;SDS011;9229;52.354;20.886;2022-08-06T09:51:20;5.50;;;3.33;;
18206;SDS011;9229;52.354;20.886;2022-08-06T09:56:25;3.60;;;3.40;;
18206;SDS011;9229;52.354;20.886;2022-08-06T10:01:29;4.35;;;3.60;;
18206;SDS011;9229;52.354;20.886;2022-08-06T10:12:00;3.00;;;2.67;;
18206;SDS011;9229;52.354;20.886;2022-08-06T10:17:03;3.10;;;2.85;;
18206;SDS011;9229;52.354;20.886;2022-08-06T10:22:09;4.65;;;3.25;;
18206;SDS011;9229;52.354;20.886;2022-08-06T10:27:15;2.72;;;2.63;;
18206;SDS011;9229;52.354;20.886;2022-08-06T10:32:22;5.45;;;2.70;;
18206;SDS011;9229;52.354;20.886;2022-08-06T10:37:29;2.60;;;2.40;;
18206;SDS011;9229;52.354;20.886;2022-08-06T10:42:41;5.43;;;2.65;;
18206;SDS011;9229;52.354;20.886;2022-08-06T10:47:45;2.55;;;2.35;;
18206;SDS011;9229;52.354;20.886;2022-08-06T10:52:48;4.07;;;2.80;;
18206;SDS011;9229;52.354;20.886;2022-08-06T10:57:54;3.42;;;2.70;;
18206;SDS011;9229;52.354;20.886;2022-08-06T11:02:57;2.53;;;2.33;;
18206;SDS011;9229;52.354;20.886;2022-08-06T11:08:24;4.88;;;2.58;;
18206;SDS011;9229;52.354;20.886;2022-08-06T11:13:49;3.63;;;2.58;;
18206;SDS011;9229;52.354;20.886;2022-08-06T11:19:01;2.63;;;2.42;;
18206;SDS011;9229;52.354;20.886;2022-08-06T11:24:06;2.38;;;2.15;;
18206;SDS011;9229;52.354;20.886;2022-08-06T11:29:12;4.57;;;2.42;;
18206;SDS011;9229;52.354;20.886;2022-08-06T11:34:17;2.20;;;2.05;;
18206;SDS011;9229;52.354;20.886;2022-08-06T11:39:22;2.78;;;2.30;;
18206;SDS011;9229;52.354;20.886;2022-08-06T11:44:29;2.40;;;2.20;;
18206;SDS011;9229;52.354;20.886;2022-08-06T11:49:35;2.65;;;2.40;;
18206;SDS011;9229;52.354;20.886;2022-08-06T11:55:00;3.25;;;2.28;;
18206;SDS011;9229;52.354;20.886;2022-08-06T12:00:08;3.20;;;2.15;;
18206;SDS011;9229;52.354;20.886;2022-08-06T12:10:36;3.22;;;2.75;;
18206;SDS011;9229;52.354;20.886;2022-08-06T12:15:41;2.75;;;2.55;;
18206;SDS011;9229;52.354;20.886;2022-08-06T12:20:46;4.65;;;2.75;;
18206;SDS011;9229;52.354;20.886;2022-08-06T12:25:53;6.57;;;3.20;;
18206;SDS011;9229;52.354;20.886;2022-08-06T12:30:58;4.50;;;3.13;;
18206;SDS011;9229;52.354;20.886;2022-08-06T12:36:01;3.72;;;3.03;;
18206;SDS011;9229;52.354;20.886;2022-08-06T12:41:05;3.42;;;3.22;;
18206;SDS011;9229;52.354;20.886;2022-08-06T12:46:10;6.55;;;3.13;;
18206;SDS011;9229;52.354;20.886;2022-08-06T12:51:14;2.65;;;2.45;;
18206;SDS011;9229;52.354;20.886;2022-08-06T12:56:17;3.55;;;2.92;;
18206;SDS011;9229;52.354;20.886;2022-08-06T13:01:24;5.88;;;2.95;;
18206;SDS011;9229;52.354;20.886;2022-08-06T13:06:30;4.85;;;2.65;;
18206;SDS011;9229;52.354;20.886;2022-08-06T13:11:36;2.80;;;2.20;;
18206;SDS011;9229;52.354;20.886;2022-08-06T13:16:42;4.03;;;2.40;;
18206;SDS011;9229;52.354;20.886;2022-08-06T13:21:56;3.55;;;2.38;;
18206;SDS011;9229;52.354;20.886;2022-08-06T13:27:01;2.10;;;1.90;;
18206;SDS011;9229;52.354;20.886;2022-08-06T13:32:07;2.40;;;2.20;;
18206;SDS011;9229;52.354;20.886;2022-08-06T13:37:11;11.85;;;2.50;;
18206;SDS011;9229;52.354;20.886;2022-08-06T13:42:14;2.08;;;1.92;;
18206;SDS011;9229;52.354;20.886;2022-08-06T13:47:27;3.95;;;1.90;;
18206;SDS011;9229;52.354;20.886;2022-08-06T13:52:30;2.30;;;1.80;;
18206;SDS011;9229;52.354;20.886;2022-08-06T13:57:33;2.45;;;1.50;;
18206;SDS011;9229;52.354;20.886;2022-08-06T14:02:38;2.67;;;1.52;;
18206;SDS011;9229;52.354;20.886;2022-08-06T14:07:41;1.83;;;1.67;;
18206;SDS011;9229;52.354;20.886;2022-08-06T14:12:44;1.80;;;1.70;;
18206;SDS011;9229;52.354;20.886;2022-08-06T14:18:09;2.38;;;1.58;;
18206;SDS011;9229;52.354;20.886;2022-08-06T14:23:13;2.67;;;1.50;;
18206;SDS011;9229;52.354;20.886;2022-08-06T14:28:17;5.20;;;1.67;;
18206;SDS011;9229;52.354;20.886;2022-08-06T14:33:22;1.88;;;1.63;;
18206;SDS011;9229;52.354;20.886;2022-08-06T14:38:25;1.88;;;1.77;;
18206;SDS011;9229;52.354;20.886;2022-08-06T14:43:29;3.95;;;1.67;;
18206;SDS011;9229;52.354;20.886;2022-08-06T14:48:47;1.85;;;1.48;;
18206;SDS011;9229;52.354;20.886;2022-08-06T14:53:50;3.45;;;1.65;;
18206;SDS011;9229;52.354;20.886;2022-08-06T14:58:53;1.63;;;1.40;;
18206;SDS011;9229;52.354;20.886;2022-08-06T15:03:57;5.30;;;1.55;;
18206;SDS011;9229;52.354;20.886;2022-08-06T15:09:00;1.45;;;1.42;;
18206;SDS011;9229;52.354;20.886;2022-08-06T15:14:04;1.27;;;1.27;;
18206;SDS011;9229;52.354;20.886;2022-08-06T15:19:08;4.82;;;1.58;;
18206;SDS011;9229;52.354;20.886;2022-08-06T15:24:12;1.90;;;1.80;;
18206;SDS011;9229;52.354;20.886;2022-08-06T15:29:15;1.42;;;1.33;;
18206;SDS011;9229;52.354;20.886;2022-08-06T15:34:20;4.78;;;1.52;;
18206;SDS011;9229;52.354;20.886;2022-08-06T15:39:22;2.15;;;1.40;;
18206;SDS011;9229;52.354;20.886;2022-08-06T15:44:26;4.07;;;1.60;;
18206;SDS011;9229;52.354;20.886;2022-08-06T15:49:31;4.25;;;1.30;;
18206;SDS011;9229;52.354;20.886;2022-08-06T15:54:36;2.92;;;1.30;;
18206;SDS011;9229;52.354;20.886;2022-08-06T15:59:39;2.60;;;1.50;;
18206;SDS011;9229;52.354;20.886;2022-08-06T16:04:43;1.35;;;1.33;;
18206;SDS011;9229;52.354;20.886;2022-08-06T16:09:46;1.52;;;1.42;;
18206;SDS011;9229;52.354;20.886;2022-08-06T16:14:50;1.30;;;1.20;;
18206;SDS011;9229;52.354;20.886;2022-08-06T16:19:56;2.17;;;1.20;;
18206;SDS011;9229;52.354;20.886;2022-08-06T16:24:59;4.68;;;1.75;;
18206;SDS011;9229;52.354;20.886;2022-08-06T16:30:03;1.73;;;1.63;;
18206;SDS011;9229;52.354;20.886;2022-08-06T16:35:09;1.70;;;1.15;;
18206;SDS011;9229;52.354;20.886;2022-08-06T16:40:12;6.07;;;1.40;;
18206;SDS011;9229;52.354;20.886;2022-08-06T16:45:18;3.70;;;1.70;;
18206;SDS011;9229;52.354;20.886;2022-08-06T16:50:23;3.40;;;1.50;;
18206;SDS011;9229;52.354;20.886;2022-08-06T16:55:26;2.03;;;1.60;;
18206;SDS011;9229;52.354;20.886;2022-08-06T17:00:30;1.55;;;1.52;;
18206;SDS011;9229;52.354;20.886;2022-08-06T17:05:36;3.90;;;1.50;;
18206;SDS011;9229;52.354;20.886;2022-08-06T17:10:39;3.90;;;1.38;;
18206;SDS011;9229;52.354;20.886;2022-08-06T17:15:42;2.92;;;1.50;;
18206;SDS011;9229;52.354;20.886;2022-08-06T17:20:47;2.10;;;1.55;;
18206;SDS011;9229;52.354;20.886;2022-08-06T17:25:50;2.08;;;1.60;;
18206;SDS011;9229;52.354;20.886;2022-08-06T17:30:55;1.70;;;1.60;;
18206;SDS011;9229;52.354;20.886;2022-08-06T17:35:59;2.35;;;1.75;;
18206;SDS011;9229;52.354;20.886;2022-08-06T17:41:02;2.42;;;1.90;;
18206;SDS011;9229;52.354;20.886;2022-08-06T17:46:05;3.42;;;2.13;;
18206;SDS011;9229;52.354;20.886;2022-08-06T17:51:12;11.00;;;5.30;;
18206;SDS011;9229;52.354;20.886;2022-08-06T17:56:16;7.90;;;4.60;;
18206;SDS011;9229;52.354;20.886;2022-08-06T18:01:19;6.78;;;4.43;;
18206;SDS011;9229;52.354;20.886;2022-08-06T18:06:23;6.80;;;4.13;;
18206;SDS011;9229;52.354;20.886;2022-08-06T18:11:26;4.60;;;3.80;;
18206;SDS011;9229;52.354;20.886;2022-08-06T18:16:30;4.68;;;4.38;;
18206;SDS011;9229;52.354;20.886;2022-08-06T18:21:35;5.78;;;3.60;;
18206;SDS011;9229;52.354;20.886;2022-08-06T18:26:39;8.43;;;3.28;;
18206;SDS011;9229;52.354;20.886;2022-08-06T18:31:42;3.35;;;3.15;;
18206;SDS011;9229;52.354;20.886;2022-08-06T18:36:47;9.65;;;4.85;;
18206;SDS011;9229;52.354;20.886;2022-08-06T18:41:49;12.18;;;4.07;;
18206;SDS011;9229;52.354;20.886;2022-08-06T18:46:52;4.13;;;3.53;;
18206;SDS011;9229;52.354;20.886;2022-08-06T18:51:57;14.52;;;3.13;;
18206;SDS011;9229;52.354;20.886;2022-08-06T18:57:00;10.43;;;3.85;;
18206;SDS011;9229;52.354;20.886;2022-08-06T19:02:04;10.52;;;3.42;;
18206;SDS011;9229;52.354;20.886;2022-08-06T19:07:09;8.18;;;3.95;;
18206;SDS011;9229;52.354;20.886;2022-08-06T19:12:13;4.80;;;3.40;;
18206;SDS011;9229;52.354;20.886;2022-08-06T19:17:19;8.10;;;4.10;;
18206;SDS011;9229;52.354;20.886;2022-08-06T19:22:25;4.82;;;4.35;;
18206;SDS011;9229;52.354;20.886;2022-08-06T19:27:28;8.80;;;5.68;;
18206;SDS011;9229;52.354;20.886;2022-08-06T19:32:31;6.22;;;5.07;;
18206;SDS011;9229;52.354;20.886;2022-08-06T19:37:35;4.65;;;4.22;;
18206;SDS011;9229;52.354;20.886;2022-08-06T19:42:39;6.70;;;4.47;;
18206;SDS011;9229;52.354;20.886;2022-08-06T19:47:42;6.47;;;5.85;;
18206;SDS011;9229;52.354;20.886;2022-08-06T19:52:49;10.65;;;5.32;;
18206;SDS011;9229;52.354;20.886;2022-08-06T19:57:53;9.32;;;4.47;;
18206;SDS011;9229;52.354;20.886;2022-08-06T20:02:56;6.55;;;4.93;;
18206;SDS011;9229;52.354;20.886;2022-08-06T20:08:02;5.47;;;4.57;;
18206;SDS011;9229;52.354;20.886;2022-08-06T20:13:07;4.72;;;4.38;;
18206;SDS011;9229;52.354;20.886;2022-08-06T20:18:10;4.72;;;4.32;;
18206;SDS011;9229;52.354;20.886;2022-08-06T20:23:14;4.93;;;4.38;;
18206;SDS011;9229;52.354;20.886;2022-08-06T20:28:17;4.07;;;3.88;;
18206;SDS011;9229;52.354;20.886;2022-08-06T20:33:20;5.40;;;4.10;;
18206;SDS011;9229;52.354;20.886;2022-08-06T20:38:26;7.00;;;4.00;;
18206;SDS011;9229;52.354;20.886;2022-08-06T20:43:32;4.88;;;4.57;;
18206;SDS011;9229;52.354;20.886;2022-08-06T20:48:36;5.05;;;4.55;;
18206;SDS011;9229;52.354;20.886;2022-08-06T20:53:40;6.30;;;4.35;;
18206;SDS011;9229;52.354;20.886;2022-08-06T20:58:43;5.40;;;4.90;;
18206;SDS011;9229;52.354;20.886;2022-08-06T21:03:47;5.07;;;4.32;;
18206;SDS011;9229;52.354;20.886;2022-08-06T21:08:51;4.32;;;4.03;;
18206;SDS011;9229;52.354;20.886;2022-08-06T21:13:54;5.25;;;4.85;;
18206;SDS011;9229;52.354;20.886;2022-08-06T21:18:58;5.47;;;4.40;;
18206;SDS011;9229;52.354;20.886;2022-08-06T21:24:02;6.90;;;4.78;;
18206;SDS011;9229;52.354;20.886;2022-08-06T21:29:06;7.00;;;5.03;;
18206;SDS011;9229;52.354;20.886;2022-08-06T21:34:10;5.00;;;4.70;;
18206;SDS011;9229;52.354;20.886;2022-08-06T21:39:14;6.03;;;4.40;;
18206;SDS011;9229;52.354;20.886;2022-08-06T21:44:17;6.15;;;4.78;;
18206;SDS011;9229;52.354;20.886;2022-08-06T21:49:21;3.88;;;3.40;;
18206;SDS011;9229;52.354;20.886;2022-08-06T21:54:26;3.97;;;3.50;;
18206;SDS011;9229;52.354;20.886;2022-08-06T21:59:29;7.78;;;3.35;;
18206;SDS011;9229;52.354;20.886;2022-08-06T22:04:33;3.60;;;3.40;;
18206;SDS011;9229;52.354;20.886;2022-08-06T22:09:37;3.22;;;3.13;;
18206;SDS011;9229;52.354;20.886;2022-08-06T22:14:40;3.25;;;2.95;;
18206;SDS011;9229;52.354;20.886;2022-08-06T22:19:43;3.65;;;2.72;;
18206;SDS011;9229;52.354;20.886;2022-08-06T22:24:48;3.40;;;2.80;;
18206;SDS011;9229;52.354;20.886;2022-08-06T22:29:51;2.83;;;2.70;;
18206;SDS011;9229;52.354;20.886;2022-08-06T22:35:08;5.65;;;3.03;;
18206;SDS011;9229;52.354;20.886;2022-08-06T22:40:13;3.22;;;3.03;;
18206;SDS011;9229;52.354;20.886;2022-08-06T22:45:16;2.88;;;2.67;;
18206;SDS011;9229;52.354;20.886;2022-08-06T22:50:18;3.85;;;2.85;;
18206;SDS011;9229;52.354;20.886;2022-08-06T22:55:26;4.85;;;3.25;;
18206;SDS011;9229;52.354;20.886;2022-08-06T23:00:30;3.63;;;3.00;;
18206;SDS011;9229;52.354;20.886;2022-08-06T23:05:34;3.55;;;2.42;;
18206;SDS011;9229;52.354;20.886;2022-08-06T23:10:38;2.65;;;2.55;;
18206;SDS011;9229;52.354;20.886;2022-08-06T23:15:41;3.53;;;3.22;;
18206;SDS011;9229;52.354;20.886;2022-08-06T23:20:44;2.15;;;2.10;;
18206;SDS011;9229;52.354;20.886;2022-08-06T23:25:49;2.83;;;2.40;;
18206;SDS011;9229;52.354;20.886;2022-08-06T23:30:51;4.32;;;2.60;;
18206;SDS011;9229;52.354;20.886;2022-08-06T23:35:54;3.17;;;2.40;;
18206;SDS011;9229;52.354;20.886;2022-08-06T23:40:59;2.53;;;2.35;;
18206;SDS011;9229;52.354;20.886;2022-08-06T23:46:02;3.05;;;2.28;;
18206;SDS011;9229;52.354;20.886;2022-08-06T23:51:05;3.00;;;2.38;;
18206;SDS011;9229;52.354;20.886;2022-08-06T23:56:15;7.93;;;2.83;;
